Maersk Missouri — WAHV — position and weather

sailwx.info

Track history (hours):
 
Tides and Currents Weather Stations Pressure Air Temp Water Temp Dewpoint Dewpoint Depression Visibility Wind Speed Wind Dir Waves Ship Positions

Maersk Missouri

Owner: MAERSK LINE, LIMITED, Norfolk, VA. More information available from US FCC via Universal Licensing System and Coast Guard Vessel Documentation Center.

Last reported at 2015-Jan-26 06:00 UTC. Time now 2015-Jan-26 14:28 UTC.
Position N 41°30' W 038°42'.

Type: Cargo ship. MMSI: 369708000.

Wind from 170 at 20 knots

Waves 2.0 meters (7 feet), 6 second period

Barometer 1028.8 mb
Air temperature 15.5 ° C
Visibility: greater than 10.8 NM
Dewpoint 11.8 ° C
Water temperature 15.7 ° C

Date/timePositionNaut miles runAvg speedWind from/ knotsBaromVisibWave heightAir tempDewpointWater temp
2015-Jan-26 06:00N 41°30' W 038°42'36220.1 170 / 201028.810.8 2.015.511.815.7
2015-Jan-25 12:00N 43°18' W 030°54'11919.8 030 / 281029.7 5.4 2.012.511.214.8
2015-Jan-25 06:00N 43°54' W 028°18'12020.0 190 / 271026.910.8 2.515.011.713.2
2015-Jan-25 00:00N 44°24' W 025°36'11719.4 180 / 281029.510.8 2.014.011.212.5
2015-Jan-24 18:00N 45°00' W 023°00'39521.9 190 / 181033.510.8 1.513.812.012.6
2015-Jan-24 00:00N 47°18' W 014°06'10818.0 020 / 181033.5 2.2 1.511.6 8.411.3
2015-Jan-23 18:00N 48°06' W 011°42'12721.2 300 / 181028.5 5.4 1.513.011.311.9
2015-Jan-23 12:00N 49°00' W 008°48'20020.7 200 / 201022.7 2.2 2.012.012.010.6
2015-Jan-23 02:19N 50°05' W 003°56'1722.8
2015-Jan-23 01:33N 50°14' W 003°33'1515.1
2015-Jan-23 00:33N 50°25' W 003°18'2120.9
2015-Jan-22 23:33N 50°26' W 002°45'2119.0
2015-Jan-22 22:28N 50°28' W 002°13'1617.7
2015-Jan-22 21:33N 50°29' W 001°47'1717.5
2015-Jan-22 20:33N 50°28' W 001°20'1817.9
2015-Jan-22 19:33N 50°29' W 000°52'2120.9
2015-Jan-22 18:33N 50°31' W 000°19'1221.8
2015-Jan-22 18:00N 50°30' E 000°00'1225.8 020 / 161026.910.8 1.5 5.0-0.3 9.7
2015-Jan-22 17:32N 50°36' E 000°16'2222.5
2015-Jan-22 16:34N 50°44' E 000°49'2121.3
2015-Jan-22 15:34N 50°55' E 001°17'1818.4
2015-Jan-22 14:34N 51°08' E 001°37'1818.2
2015-Jan-22 13:33N 51°22' E 001°55'2019.8
2015-Jan-22 12:33N 51°38' E 002°15'2721.8
2015-Jan-22 11:18N 51°59' E 002°44'1722.8
2015-Jan-22 10:33N 52°11' E 003°02'8621.6
2015-Jan-22 06:33N 53°19' E 004°30'1918.9
2015-Jan-22 05:33N 53°32' E 004°55'2120.8
2015-Jan-22 04:33N 53°38' E 005°28'2222.4
2015-Jan-22 03:34N 53°45' E 006°04'4622.1
2015-Jan-22 01:28N 53°57' E 007°20'1618.0
2015-Jan-22 00:33N 53°53' E 007°47'1515.5
2015-Jan-21 23:33N 53°47' E 008°10'1115.8
2015-Jan-21 22:50N 53°39' E 008°24'115.1
2015-Jan-21 22:46N 53°38' E 008°26'314.1
2015-Jan-21 22:33N 53°37' E 008°30'2 2.2
2015-Jan-21 21:32N 53°35' E 008°32'0 0.0
2015-Jan-21 20:32N 53°35' E 008°32'0 0.0
2015-Jan-21 19:33N 53°35' E 008°32'0 0.0
2015-Jan-21 18:33N 53°35' E 008°32'0 0.0
2015-Jan-21 17:31N 53°35' E 008°32'0 0.0
2015-Jan-21 16:32N 53°35' E 008°32'0 0.0
2015-Jan-21 15:32N 53°35' E 008°32'0 0.0
2015-Jan-21 14:33N 53°35' E 008°32'0 0.0
2015-Jan-21 13:34N 53°35' E 008°32'0 0.0
2015-Jan-21 12:31N 53°35' E 008°32'0 0.0
2015-Jan-21 11:32N 53°35' E 008°32'0 0.0
2015-Jan-21 10:32N 53°35' E 008°32'0 0.0
2015-Jan-21 09:33N 53°35' E 008°32'0 0.0
2015-Jan-21 08:31N 53°35' E 008°32'0 0.0
2015-Jan-21 07:31N 53°35' E 008°32'0 0.0
2015-Jan-21 06:32N 53°35' E 008°32'0 0.0
2015-Jan-21 05:30N 53°35' E 008°32'0 0.0
2015-Jan-21 04:33N 53°35' E 008°32'0 0.0
2015-Jan-21 03:31N 53°35' E 008°32'0 0.0
2015-Jan-21 02:32N 53°35' E 008°32'0 0.0
2015-Jan-21 01:29N 53°35' E 008°32'0 0.0
2015-Jan-21 00:33N 53°35' E 008°32'0 0.1
2015-Jan-20 23:33N 53°35' E 008°32'8 7.6
2015-Jan-20 22:33N 53°40' E 008°23'1313.0
2015-Jan-20 21:34N 53°49' E 008°07'1212.4
2015-Jan-20 20:33N 53°52' E 007°47'4 4.2
2015-Jan-20 19:33N 53°53' E 007°40'8 7.6
2015-Jan-20 18:32N 53°53' E 007°27'1514.2
2015-Jan-20 17:31N 53°52' E 007°02'2121.9
2015-Jan-20 16:33N 53°47' E 006°27'2222.6
2015-Jan-20 15:34N 53°39' E 005°51'2221.9
2015-Jan-20 14:34N 53°31' E 005°17'2222.0
2015-Jan-20 13:34N 53°23' E 004°43'2322.7
2015-Jan-20 12:33N 53°03' E 004°25'2322.4
2015-Jan-20 11:32N 52°43' E 004°07'2122.0
2015-Jan-20 10:33N 52°23' E 003°53'1919.5
2015-Jan-20 09:34N 52°03' E 003°51'1110.5
2015-Jan-20 08:33N 51°58' E 004°05'1 1.0
2015-Jan-20 07:32N 51°58' E 004°03'0 0.0
2015-Jan-20 06:32N 51°58' E 004°03'0 0.0
2015-Jan-20 05:30N 51°58' E 004°03'0 0.0
2015-Jan-20 04:33N 51°58' E 004°03'0 0.0
2015-Jan-20 03:32N 51°58' E 004°03'0 0.0
2015-Jan-20 02:20N 51°58' E 004°03'0 0.0
2015-Jan-20 01:20N 51°58' E 004°03'0 0.0
2015-Jan-20 00:33N 51°58' E 004°03'0 0.0
2015-Jan-19 23:33N 51°58' E 004°03'0 0.0
2015-Jan-19 22:31N 51°58' E 004°03'0 0.0
2015-Jan-19 21:31N 51°58' E 004°03'0 0.0
2015-Jan-19 20:32N 51°58' E 004°03'0 0.0
2015-Jan-19 19:30N 51°58' E 004°03'0 0.0
2015-Jan-19 18:33N 51°58' E 004°03'0 0.0
2015-Jan-19 17:33N 51°58' E 004°03'0 0.0
2015-Jan-19 16:31N 51°58' E 004°03'0 0.0
2015-Jan-19 15:32N 51°58' E 004°03'0 0.0
2015-Jan-19 14:32N 51°58' E 004°03'0 0.0
2015-Jan-19 13:33N 51°58' E 004°03'0 0.0
2015-Jan-19 12:33N 51°58' E 004°03'0 0.0
2015-Jan-19 11:33N 51°58' E 004°03'0 0.0
2015-Jan-19 10:33N 51°58' E 004°03'0 0.0
2015-Jan-19 09:31N 51°58' E 004°03'0 0.0
2015-Jan-19 08:32N 51°58' E 004°03'0 0.0
2015-Jan-19 07:32N 51°58' E 004°03'0 0.0
2015-Jan-19 06:33N 51°58' E 004°03'0 0.2
2015-Jan-19 05:33N 51°58' E 004°03'4 3.5
2015-Jan-19 04:33N 51°60' E 003°59'1010.2
2015-Jan-19 03:33N 51°59' E 003°43'9 8.5
2015-Jan-19 02:30N 51°56' E 003°29'8 8.1
2015-Jan-19 01:32N 51°50' E 003°21'8 8.0
2015-Jan-19 00:33N 51°43' E 003°14'1715.5
2015-Jan-18 23:29N 51°29' E 003°02'1212.5
2015-Jan-18 22:33N 51°24' E 003°19'1413.8
2015-Jan-18 21:34N 51°26' E 003°41'1110.6
2015-Jan-18 20:33N 51°25' E 003°58'10 9.8
2015-Jan-18 19:34N 51°23' E 004°13'3 3.3
2015-Jan-18 18:33N 51°21' E 004°17'0 0.4
2015-Jan-18 17:33N 51°21' E 004°18'2 1.9
2015-Jan-18 16:32N 51°20' E 004°20'0 0.0
2015-Jan-18 15:32N 51°20' E 004°20'0 0.0
2015-Jan-18 14:32N 51°20' E 004°20'0 0.0
2015-Jan-18 13:33N 51°20' E 004°20'0 0.0
2015-Jan-18 12:33N 51°20' E 004°20'0 0.0
2015-Jan-18 11:31N 51°20' E 004°20'0 0.0
2015-Jan-18 10:31N 51°20' E 004°20'0 0.0
2015-Jan-18 09:29N 51°20' E 004°20'0 0.0
2015-Jan-18 08:32N 51°20' E 004°20'0 0.0
2015-Jan-18 07:32N 51°20' E 004°20'0 0.0
2015-Jan-18 06:33N 51°20' E 004°20'0 0.0
2015-Jan-18 05:30N 51°20' E 004°20'0 0.0
2015-Jan-18 04:31N 51°20' E 004°20'0 0.0
2015-Jan-18 03:28N 51°20' E 004°20'0 0.0
2015-Jan-18 02:20N 51°20' E 004°20'0 0.0
2015-Jan-18 01:32N 51°20' E 004°20'0 0.0
2015-Jan-18 00:27N 51°20' E 004°20'0 0.0
2015-Jan-17 23:33N 51°20' E 004°20'0 0.0
2015-Jan-17 22:33N 51°20' E 004°20'0 0.4
2015-Jan-17 21:33N 51°20' E 004°20'2 2.0
2015-Jan-17 20:34N 51°21' E 004°17'0 0.0
2015-Jan-17 19:34N 51°21' E 004°17'3 2.6
2015-Jan-17 18:34N 51°22' E 004°13'10 9.9
2015-Jan-17 17:33N 51°26' E 003°59'1010.5
2015-Jan-17 16:33N 51°25' E 003°42'10 9.5
2015-Jan-17 15:33N 51°25' E 003°27'1514.6
2015-Jan-17 14:33N 51°24' E 003°04'1312.8
2015-Jan-17 13:33N 51°37' E 003°10'1110.5
2015-Jan-17 12:32N 51°47' E 003°13'2 2.3
2015-Jan-17 11:31N 51°49' E 003°15'1110.3
2015-Jan-17 10:30N 51°59' E 003°20'2110.6
2015-Jan-17 08:33N 52°03' E 003°53'9 9.2
2015-Jan-17 07:33N 51°58' E 004°04'3 2.5
2015-Jan-17 06:32N 51°57' E 004°00'0 0.0
2015-Jan-17 05:32N 51°57' E 004°00'0 0.0
2015-Jan-17 04:30N 51°57' E 004°00'0 0.0
2015-Jan-17 03:31N 51°57' E 004°00'0 0.0
2015-Jan-17 02:28N 51°57' E 004°00'0 0.0
2015-Jan-17 01:32N 51°57' E 004°00'0 0.0
2015-Jan-17 00:33N 51°57' E 004°00'0 0.0
2015-Jan-16 23:31N 51°57' E 004°00'0 0.0
2015-Jan-16 22:32N 51°57' E 004°00'0 0.0
2015-Jan-16 21:33N 51°57' E 004°00'0 0.0
2015-Jan-16 20:33N 51°57' E 004°00'0 0.0
2015-Jan-16 19:31N 51°57' E 004°00'0 0.0
2015-Jan-16 18:31N 51°57' E 004°00'0 0.0
2015-Jan-16 17:32N 51°57' E 004°00'0 0.0
2015-Jan-16 16:33N 51°57' E 004°00'0 0.0
2015-Jan-16 15:33N 51°57' E 004°00'0 0.0
2015-Jan-16 14:31N 51°57' E 004°00'0 0.0
2015-Jan-16 13:32N 51°57' E 004°00'0 0.0
2015-Jan-16 12:32N 51°57' E 004°00'0 0.0
2015-Jan-16 11:33N 51°57' E 004°00'0 0.0
2015-Jan-16 10:31N 51°57' E 004°00'0 0.0
2015-Jan-16 09:31N 51°57' E 004°00'0 0.0
2015-Jan-16 08:32N 51°57' E 004°00'0 0.0
2015-Jan-16 07:33N 51°57' E 004°00'0 0.0
2015-Jan-16 06:33N 51°57' E 004°00'  
Track history (hours):
 
Tides and Currents Weather Stations Pressure Air Temp Water Temp Dewpoint Dewpoint Depression Visibility Wind Speed Wind Dir Waves Ship Positions

Maersk Missouri

Owner: MAERSK LINE, LIMITED, Norfolk, VA. More information available from US FCC via Universal Licensing System and Coast Guard Vessel Documentation Center.

Last reported at 2015-Jan-26 06:00 UTC. Time now 2015-Jan-26 14:28 UTC.
Position N 41°30' W 038°42'.

Type: Cargo ship. MMSI: 369708000.

Wind from 170 at 20 knots

Waves 2.0 meters (7 feet), 6 second period

Barometer 1028.8 mb
Air temperature 15.5 ° C
Visibility: greater than 10.8 NM
Dewpoint 11.8 ° C
Water temperature 15.7 ° C

Date/timePositionNaut miles runAvg speedWind from/ knotsBaromVisibWave heightAir tempDewpointWater temp
2015-Jan-26 06:00N 41°30' W 038°42'36220.1 170 / 201028.810.8 2.015.511.815.7
2015-Jan-25 12:00N 43°18' W 030°54'11919.8 030 / 281029.7 5.4 2.012.511.214.8
2015-Jan-25 06:00N 43°54' W 028°18'12020.0 190 / 271026.910.8 2.515.011.713.2
2015-Jan-25 00:00N 44°24' W 025°36'11719.4 180 / 281029.510.8 2.014.011.212.5
2015-Jan-24 18:00N 45°00' W 023°00'39521.9 190 / 181033.510.8 1.513.812.012.6
2015-Jan-24 00:00N 47°18' W 014°06'10818.0 020 / 181033.5 2.2 1.511.6 8.411.3
2015-Jan-23 18:00N 48°06' W 011°42'12721.2 300 / 181028.5 5.4 1.513.011.311.9
2015-Jan-23 12:00N 49°00' W 008°48'20020.7 200 / 201022.7 2.2 2.012.012.010.6
2015-Jan-23 02:19N 50°05' W 003°56'1722.8
2015-Jan-23 01:33N 50°14' W 003°33'1515.1
2015-Jan-23 00:33N 50°25' W 003°18'2120.9
2015-Jan-22 23:33N 50°26' W 002°45'2119.0
2015-Jan-22 22:28N 50°28' W 002°13'1617.7
2015-Jan-22 21:33N 50°29' W 001°47'1717.5
2015-Jan-22 20:33N 50°28' W 001°20'1817.9
2015-Jan-22 19:33N 50°29' W 000°52'2120.9
2015-Jan-22 18:33N 50°31' W 000°19'1221.8
2015-Jan-22 18:00N 50°30' E 000°00'1225.8 020 / 161026.910.8 1.5 5.0-0.3 9.7
2015-Jan-22 17:32N 50°36' E 000°16'2222.5
2015-Jan-22 16:34N 50°44' E 000°49'2121.3
2015-Jan-22 15:34N 50°55' E 001°17'1818.4
2015-Jan-22 14:34N 51°08' E 001°37'1818.2
2015-Jan-22 13:33N 51°22' E 001°55'2019.8
2015-Jan-22 12:33N 51°38' E 002°15'2721.8
2015-Jan-22 11:18N 51°59' E 002°44'1722.8
2015-Jan-22 10:33N 52°11' E 003°02'8621.6
2015-Jan-22 06:33N 53°19' E 004°30'1918.9
2015-Jan-22 05:33N 53°32' E 004°55'2120.8
2015-Jan-22 04:33N 53°38' E 005°28'2222.4
2015-Jan-22 03:34N 53°45' E 006°04'4622.1
2015-Jan-22 01:28N 53°57' E 007°20'1618.0
2015-Jan-22 00:33N 53°53' E 007°47'1515.5
2015-Jan-21 23:33N 53°47' E 008°10'1115.8
2015-Jan-21 22:50N 53°39' E 008°24'115.1
2015-Jan-21 22:46N 53°38' E 008°26'314.1
2015-Jan-21 22:33N 53°37' E 008°30'2 2.2
2015-Jan-21 21:32N 53°35' E 008°32'0 0.0
2015-Jan-21 20:32N 53°35' E 008°32'0 0.0
2015-Jan-21 19:33N 53°35' E 008°32'0 0.0
2015-Jan-21 18:33N 53°35' E 008°32'0 0.0
2015-Jan-21 17:31N 53°35' E 008°32'0 0.0
2015-Jan-21 16:32N 53°35' E 008°32'0 0.0
2015-Jan-21 15:32N 53°35' E 008°32'0 0.0
2015-Jan-21 14:33N 53°35' E 008°32'0 0.0
2015-Jan-21 13:34N 53°35' E 008°32'0 0.0
2015-Jan-21 12:31N 53°35' E 008°32'0 0.0
2015-Jan-21 11:32N 53°35' E 008°32'0 0.0
2015-Jan-21 10:32N 53°35' E 008°32'0 0.0
2015-Jan-21 09:33N 53°35' E 008°32'0 0.0
2015-Jan-21 08:31N 53°35' E 008°32'0 0.0
2015-Jan-21 07:31N 53°35' E 008°32'0 0.0
2015-Jan-21 06:32N 53°35' E 008°32'0 0.0
2015-Jan-21 05:30N 53°35' E 008°32'0 0.0
2015-Jan-21 04:33N 53°35' E 008°32'0 0.0
2015-Jan-21 03:31N 53°35' E 008°32'0 0.0
2015-Jan-21 02:32N 53°35' E 008°32'0 0.0
2015-Jan-21 01:29N 53°35' E 008°32'0 0.0
2015-Jan-21 00:33N 53°35' E 008°32'0 0.1
2015-Jan-20 23:33N 53°35' E 008°32'8 7.6
2015-Jan-20 22:33N 53°40' E 008°23'1313.0
2015-Jan-20 21:34N 53°49' E 008°07'1212.4
2015-Jan-20 20:33N 53°52' E 007°47'4 4.2
2015-Jan-20 19:33N 53°53' E 007°40'8 7.6
2015-Jan-20 18:32N 53°53' E 007°27'1514.2
2015-Jan-20 17:31N 53°52' E 007°02'2121.9
2015-Jan-20 16:33N 53°47' E 006°27'2222.6
2015-Jan-20 15:34N 53°39' E 005°51'2221.9
2015-Jan-20 14:34N 53°31' E 005°17'2222.0
2015-Jan-20 13:34N 53°23' E 004°43'2322.7
2015-Jan-20 12:33N 53°03' E 004°25'2322.4
2015-Jan-20 11:32N 52°43' E 004°07'2122.0
2015-Jan-20 10:33N 52°23' E 003°53'1919.5
2015-Jan-20 09:34N 52°03' E 003°51'1110.5
2015-Jan-20 08:33N 51°58' E 004°05'1 1.0
2015-Jan-20 07:32N 51°58' E 004°03'0 0.0
2015-Jan-20 06:32N 51°58' E 004°03'0 0.0
2015-Jan-20 05:30N 51°58' E 004°03'0 0.0
2015-Jan-20 04:33N 51°58' E 004°03'0 0.0
2015-Jan-20 03:32N 51°58' E 004°03'0 0.0
2015-Jan-20 02:20N 51°58' E 004°03'0 0.0
2015-Jan-20 01:20N 51°58' E 004°03'0 0.0
2015-Jan-20 00:33N 51°58' E 004°03'0 0.0
2015-Jan-19 23:33N 51°58' E 004°03'0 0.0
2015-Jan-19 22:31N 51°58' E 004°03'0 0.0
2015-Jan-19 21:31N 51°58' E 004°03'0 0.0
2015-Jan-19 20:32N 51°58' E 004°03'0 0.0
2015-Jan-19 19:30N 51°58' E 004°03'0 0.0
2015-Jan-19 18:33N 51°58' E 004°03'0 0.0
2015-Jan-19 17:33N 51°58' E 004°03'0 0.0
2015-Jan-19 16:31N 51°58' E 004°03'0 0.0
2015-Jan-19 15:32N 51°58' E 004°03'0 0.0
2015-Jan-19 14:32N 51°58' E 004°03'0 0.0
2015-Jan-19 13:33N 51°58' E 004°03'0 0.0
2015-Jan-19 12:33N 51°58' E 004°03'0 0.0
2015-Jan-19 11:33N 51°58' E 004°03'0 0.0
2015-Jan-19 10:33N 51°58' E 004°03'0 0.0
2015-Jan-19 09:31N 51°58' E 004°03'0 0.0
2015-Jan-19 08:32N 51°58' E 004°03'0 0.0
2015-Jan-19 07:32N 51°58' E 004°03'0 0.0
2015-Jan-19 06:33N 51°58' E 004°03'0 0.2
2015-Jan-19 05:33N 51°58' E 004°03'4 3.5
2015-Jan-19 04:33N 51°60' E 003°59'1010.2
2015-Jan-19 03:33N 51°59' E 003°43'9 8.5
2015-Jan-19 02:30N 51°56' E 003°29'8 8.1
2015-Jan-19 01:32N 51°50' E 003°21'8 8.0
2015-Jan-19 00:33N 51°43' E 003°14'1715.5
2015-Jan-18 23:29N 51°29' E 003°02'1212.5
2015-Jan-18 22:33N 51°24' E 003°19'1413.8
2015-Jan-18 21:34N 51°26' E 003°41'1110.6
2015-Jan-18 20:33N 51°25' E 003°58'10 9.8
2015-Jan-18 19:34N 51°23' E 004°13'3 3.3
2015-Jan-18 18:33N 51°21' E 004°17'0 0.4
2015-Jan-18 17:33N 51°21' E 004°18'2 1.9
2015-Jan-18 16:32N 51°20' E 004°20'0 0.0
2015-Jan-18 15:32N 51°20' E 004°20'0 0.0
2015-Jan-18 14:32N 51°20' E 004°20'0 0.0
2015-Jan-18 13:33N 51°20' E 004°20'0 0.0
2015-Jan-18 12:33N 51°20' E 004°20'0 0.0
2015-Jan-18 11:31N 51°20' E 004°20'0 0.0
2015-Jan-18 10:31N 51°20' E 004°20'0 0.0
2015-Jan-18 09:29N 51°20' E 004°20'0 0.0
2015-Jan-18 08:32N 51°20' E 004°20'0 0.0
2015-Jan-18 07:32N 51°20' E 004°20'0 0.0
2015-Jan-18 06:33N 51°20' E 004°20'0 0.0
2015-Jan-18 05:30N 51°20' E 004°20'0 0.0
2015-Jan-18 04:31N 51°20' E 004°20'0 0.0
2015-Jan-18 03:28N 51°20' E 004°20'0 0.0
2015-Jan-18 02:20N 51°20' E 004°20'0 0.0
2015-Jan-18 01:32N 51°20' E 004°20'0 0.0
2015-Jan-18 00:27N 51°20' E 004°20'0 0.0
2015-Jan-17 23:33N 51°20' E 004°20'0 0.0
2015-Jan-17 22:33N 51°20' E 004°20'0 0.4
2015-Jan-17 21:33N 51°20' E 004°20'2 2.0
2015-Jan-17 20:34N 51°21' E 004°17'0 0.0
2015-Jan-17 19:34N 51°21' E 004°17'3 2.6
2015-Jan-17 18:34N 51°22' E 004°13'10 9.9
2015-Jan-17 17:33N 51°26' E 003°59'1010.5
2015-Jan-17 16:33N 51°25' E 003°42'10 9.5
2015-Jan-17 15:33N 51°25' E 003°27'1514.6
2015-Jan-17 14:33N 51°24' E 003°04'1312.8
2015-Jan-17 13:33N 51°37' E 003°10'1110.5
2015-Jan-17 12:32N 51°47' E 003°13'2 2.3
2015-Jan-17 11:31N 51°49' E 003°15'1110.3
2015-Jan-17 10:30N 51°59' E 003°20'2110.6
2015-Jan-17 08:33N 52°03' E 003°53'9 9.2
2015-Jan-17 07:33N 51°58' E 004°04'3 2.5
2015-Jan-17 06:32N 51°57' E 004°00'0 0.0
2015-Jan-17 05:32N 51°57' E 004°00'0 0.0
2015-Jan-17 04:30N 51°57' E 004°00'0 0.0
2015-Jan-17 03:31N 51°57' E 004°00'0 0.0
2015-Jan-17 02:28N 51°57' E 004°00'0 0.0
2015-Jan-17 01:32N 51°57' E 004°00'0 0.0
2015-Jan-17 00:33N 51°57' E 004°00'0 0.0
2015-Jan-16 23:31N 51°57' E 004°00'0 0.0
2015-Jan-16 22:32N 51°57' E 004°00'0 0.0
2015-Jan-16 21:33N 51°57' E 004°00'0 0.0
2015-Jan-16 20:33N 51°57' E 004°00'0 0.0
2015-Jan-16 19:31N 51°57' E 004°00'0 0.0
2015-Jan-16 18:31N 51°57' E 004°00'0 0.0
2015-Jan-16 17:32N 51°57' E 004°00'0 0.0
2015-Jan-16 16:33N 51°57' E 004°00'0 0.0
2015-Jan-16 15:33N 51°57' E 004°00'0 0.0
2015-Jan-16 14:31N 51°57' E 004°00'0 0.0
2015-Jan-16 13:32N 51°57' E 004°00'0 0.0
2015-Jan-16 12:32N 51°57' E 004°00'0 0.0
2015-Jan-16 11:33N 51°57' E 004°00'0 0.0
2015-Jan-16 10:31N 51°57' E 004°00'0 0.0
2015-Jan-16 09:31N 51°57' E 004°00'0 0.0
2015-Jan-16 08:32N 51°57' E 004°00'0 0.0
2015-Jan-16 07:33N 51°57' E 004°00'0 0.0
2015-Jan-16 06:33N 51°57' E 004°00'  

Dump ship's entire track history